Time;durP1;ratioP1;P1;durP2;ratioP2;P2;SDS_P1;SDS_P2;PMS_P1;PMS_P2;Temp;Humidity;BMP_temperature;BMP_pressure;BME280_temperature;BME280_humidity;BME280_pressure;Samples;Min_cycle;Max_cycle;Signal;HPM_P1;HPM_P2
2023/03/25 00:02:23;;;;;;;4.88;0.70;;;9.50;99.90;;;;;;4978255;28;20037;-74
2023/03/25 00:04:53;;;;;;;4.43;0.90;;;9.40;99.90;;;;;;4964657;28;20349;-75
2023/03/25 00:07:21;;;;;;;3.17;0.55;;;9.50;99.90;;;;;;4975644;28;21325;-75
2023/03/25 00:09:48;;;;;;;5.32;0.75;;;9.50;99.90;;;;;;4985764;28;20413;-75
2023/03/25 00:12:16;;;;;;;7.28;0.95;;;9.50;99.90;;;;;;4970096;28;20536;-74
2023/03/25 00:14:43;;;;;;;4.95;0.82;;;9.50;99.90;;;;;;4973171;28;20038;-75
2023/03/25 00:17:09;;;;;;;5.03;0.95;;;9.40;99.90;;;;;;4973725;28;20049;-75
2023/03/25 00:19:36;;;;;;;6.72;0.60;;;9.50;99.90;;;;;;4969076;28;20052;-75
2023/03/25 00:22:02;;;;;;;6.38;0.60;;;9.50;99.90;;;;;;4973690;28;20687;-75
2023/03/25 00:24:28;;;;;;;9.90;1.10;;;9.50;99.90;;;;;;4980605;28;20042;-76
2023/03/25 00:26:55;;;;;;;5.32;1.27;;;9.50;99.90;;;;;;4996042;28;20413;-74
2023/03/25 00:29:21;;;;;;;6.03;0.73;;;9.50;99.90;;;;;;4972430;28;20064;-76
2023/03/25 00:31:47;;;;;;;5.50;1.00;;;9.50;99.90;;;;;;4969118;28;20045;-75
2023/03/25 00:34:13;;;;;;;8.55;0.70;;;9.50;99.90;;;;;;4973167;28;20038;-75
2023/03/25 00:36:40;;;;;;;6.60;0.95;;;9.50;99.90;;;;;;4955345;28;20042;-75
2023/03/25 00:39:07;;;;;;;6.13;0.90;;;9.50;99.90;;;;;;4969889;28;20030;-75
2023/03/25 00:41:35;;;;;;;9.68;1.23;;;9.50;99.90;;;;;;4952772;28;20033;-75
2023/03/25 00:44:03;;;;;;;7.18;1.02;;;9.40;99.90;;;;;;4978888;28;20570;-75
2023/03/25 00:46:31;;;;;;;4.88;0.60;;;9.50;99.90;;;;;;4981739;28;20038;-75
2023/03/25 00:48:59;;;;;;;7.72;1.02;;;9.50;99.90;;;;;;4975097;28;20077;-75
2023/03/25 00:51:27;;;;;;;6.57;0.93;;;9.50;99.90;;;;;;4968478;28;20342;-75
2023/03/25 00:54:01;;;;;;;7.05;0.80;;;9.50;99.90;;;;;;4971287;28;20044;-76
2023/03/25 00:56:28;;;;;;;5.40;1.20;;;9.50;99.90;;;;;;4985769;28;20045;-75
2023/03/25 00:58:55;;;;;;;8.45;0.77;;;9.50;99.90;;;;;;4971325;28;21020;-76
2023/03/25 01:01:26;;;;;;;4.75;0.80;;;9.50;99.90;;;;;;4965606;28;20034;-75
2023/03/25 01:03:58;;;;;;;6.03;0.80;;;9.50;99.90;;;;;;4995628;28;20042;-75
2023/03/25 01:06:35;;;;;;;4.97;0.68;;;9.50;99.90;;;;;;4979194;28;20049;-75
2023/03/25 01:09:04;;;;;;;8.40;1.10;;;9.50;99.90;;;;;;4975258;28;20621;-75
2023/03/25 01:11:33;;;;;;;4.68;0.80;;;9.50;99.90;;;;;;4966483;28;20050;-75
2023/03/25 01:14:02;;;;;;;6.22;1.10;;;9.50;99.90;;;;;;4971211;28;20509;-76
2023/03/25 01:16:28;;;;;;;6.63;1.13;;;9.40;99.90;;;;;;4972874;28;20831;-75
2023/03/25 01:18:55;;;;;;;11.52;1.42;;;9.50;99.90;;;;;;4954911;28;20040;-75
2023/03/25 01:21:22;;;;;;;5.63;0.88;;;9.50;99.90;;;;;;4968376;28;20049;-76
2023/03/25 01:23:48;;;;;;;9.60;1.15;;;9.40;99.90;;;;;;4977800;28;20736;-75
2023/03/25 01:26:15;;;;;;;10.77;1.40;;;9.50;99.90;;;;;;4995641;28;20400;-77
2023/03/25 01:28:43;;;;;;;11.05;1.70;;;9.50;99.90;;;;;;4964943;28;20038;-76
2023/03/25 01:31:12;;;;;;;7.95;0.98;;;9.40;99.90;;;;;;4950082;28;20258;-76
2023/03/25 01:33:38;;;;;;;6.40;1.38;;;9.40;99.90;;;;;;4955834;28;20033;-75
2023/03/25 01:36:08;;;;;;;8.55;1.20;;;9.40;99.90;;;;;;4987571;28;20038;-75
2023/03/25 01:38:36;;;;;;;5.20;0.98;;;9.40;99.90;;;;;;4973856;28;20041;-76
2023/03/25 01:41:03;;;;;;;8.27;0.93;;;9.40;99.90;;;;;;4967203;28;20057;-76
2023/03/25 01:43:30;;;;;;;4.32;0.88;;;9.50;99.90;;;;;;4974839;28;20042;-75
2023/03/25 01:45:57;;;;;;;6.63;0.98;;;9.50;99.90;;;;;;4979291;28;20123;-75
2023/03/25 01:48:26;;;;;;;10.75;1.17;;;9.40;99.90;;;;;;4979772;28;20050;-75
2023/03/25 01:50:59;;;;;;;6.45;1.42;;;9.40;99.90;;;;;;4969538;28;20050;-75
2023/03/25 01:53:29;;;;;;;8.13;1.30;;;9.40;99.90;;;;;;4974925;28;20061;-75
2023/03/25 01:55:56;;;;;;;8.40;1.25;;;9.40;99.90;;;;;;4954628;28;20042;-75
2023/03/25 01:58:26;;;;;;;6.35;1.48;;;9.40;99.90;;;;;;4955980;28;20037;-75
2023/03/25 02:00:54;;;;;;;8.48;0.88;;;9.40;99.90;;;;;;4964768;28;20402;-75
2023/03/25 02:03:22;;;;;;;7.57;0.85;;;9.40;99.90;;;;;;4974976;28;20405;-76
2023/03/25 02:05:53;;;;;;;10.10;1.55;;;9.40;99.90;;;;;;4981433;28;20508;-75
2023/03/25 02:08:21;;;;;;;8.27;0.93;;;9.50;99.90;;;;;;4962147;28;20034;-73
2023/03/25 02:10:48;;;;;;;6.53;0.80;;;9.40;99.90;;;;;;4982325;28;20038;-74
2023/03/25 02:13:15;;;;;;;4.80;0.80;;;9.40;99.90;;;;;;4988227;28;20049;-73
2023/03/25 02:15:58;;;;;;;6.53;0.70;;;9.30;99.90;;;;;;4953985;28;20040;-74
2023/03/25 02:18:36;;;;;;;13.15;1.50;;;9.20;99.90;;;;;;4970204;28;20034;-74
2023/03/25 02:21:30;;;;;;;10.65;1.13;;;9.10;99.90;;;;;;4978916;28;20038;-73
2023/03/25 02:24:20;;;;;;;7.70;1.08;;;9.10;99.90;;;;;;4972789;28;20046;-73
2023/03/25 02:27:40;;;;;;;9.48;1.13;;;9.00;99.90;;;;;;4982391;28;20516;-74
2023/03/25 02:30:28;;;;;;;7.53;0.90;;;9.00;99.90;;;;;;4956491;28;20488;-73
2023/03/25 02:33:07;;;;;;;9.82;1.17;;;8.90;99.90;;;;;;4967872;28;20068;-74
2023/03/25 02:35:51;;;;;;;8.32;1.05;;;8.90;99.90;;;;;;4968225;28;20053;-74
2023/03/25 02:38:40;;;;;;;9.30;1.83;;;8.90;99.90;;;;;;4987269;28;20046;-74
2023/03/25 02:41:20;;;;;;;9.88;1.52;;;8.90;99.90;;;;;;4962148;28;20042;-76
2023/03/25 02:43:56;;;;;;;5.57;1.20;;;8.90;99.90;;;;;;4971489;28;20041;-75
2023/03/25 02:46:25;;;;;;;8.38;1.30;;;8.90;99.90;;;;;;4947415;28;20511;-76
2023/03/25 02:49:23;;;;;;;7.13;1.42;;;8.80;99.90;;;;;;4977591;28;20049;-75
2023/03/25 02:51:59;;;;;;;7.38;1.23;;;8.70;99.90;;;;;;4958036;28;20042;-76
2023/03/25 02:54:29;;;;;;;11.98;2.47;;;8.70;99.90;;;;;;4974003;28;20049;-76
2023/03/25 02:56:56;;;;;;;9.20;1.83;;;8.70;99.90;;;;;;4976508;28;20438;-75
2023/03/25 02:59:28;;;;;;;8.48;1.20;;;8.60;99.90;;;;;;4969583;28;20045;-75
2023/03/25 03:02:02;;;;;;;8.80;1.98;;;8.60;99.90;;;;;;4954570;28;20046;-75
2023/03/25 03:04:29;;;;;;;12.93;2.45;;;8.60;99.90;;;;;;4976828;28;20057;-75
2023/03/25 03:06:56;;;;;;;5.85;1.20;;;8.50;99.90;;;;;;4996695;28;20046;-76
2023/03/25 03:09:45;;;;;;;5.53;1.70;;;8.50;99.90;;;;;;4979473;28;20049;-75
2023/03/25 03:12:37;;;;;;;10.55;1.75;;;8.50;99.90;;;;;;4976910;28;20033;-74
2023/03/25 03:15:23;;;;;;;6.65;1.38;;;8.50;99.90;;;;;;4974128;28;20042;-74
2023/03/25 03:18:18;;;;;;;5.10;1.52;;;8.50;99.90;;;;;;4953447;28;20061;-75
2023/03/25 03:21:23;;;;;;;6.15;1.20;;;8.50;99.90;;;;;;4965717;28;20421;-76
2023/03/25 03:24:10;;;;;;;7.05;1.17;;;8.40;99.90;;;;;;4964438;28;20050;-77
2023/03/25 03:26:45;;;;;;;8.82;1.75;;;8.40;99.90;;;;;;4974129;28;20046;-76
2023/03/25 03:29:18;;;;;;;8.18;2.05;;;8.40;99.90;;;;;;4978393;28;20370;-76
2023/03/25 03:31:52;;;;;;;8.95;1.70;;;8.40;99.90;;;;;;4976884;28;20034;-76
2023/03/25 03:34:39;;;;;;;9.02;2.38;;;8.40;99.90;;;;;;4977026;28;20056;-75
2023/03/25 03:37:07;;;;;;;5.70;1.98;;;8.40;99.90;;;;;;4977062;28;20589;-75
2023/03/25 03:39:37;;;;;;;12.55;2.88;;;8.40;99.90;;;;;;4953470;28;20068;-75
2023/03/25 03:42:17;;;;;;;8.82;1.85;;;8.40;99.90;;;;;;4971253;28;20678;-75
2023/03/25 03:44:51;;;;;;;12.73;2.33;;;8.30;99.90;;;;;;4989991;28;20029;-76
2023/03/25 03:47:23;;;;;;;7.72;2.13;;;8.30;99.90;;;;;;4957452;28;20042;-75
2023/03/25 03:49:56;;;;;;;6.18;2.13;;;8.30;99.90;;;;;;4978171;28;20445;-75
2023/03/25 03:52:36;;;;;;;13.45;2.35;;;8.30;99.90;;;;;;4979052;28;20333;-76
2023/03/25 03:55:38;;;;;;;10.90;2.08;;;8.30;99.90;;;;;;4977681;28;21541;-75
2023/03/25 03:58:14;;;;;;;7.68;1.98;;;8.30;99.90;;;;;;4967385;28;20041;-76
2023/03/25 04:00:50;;;;;;;6.57;2.15;;;8.30;99.90;;;;;;4964591;28;20037;-76
2023/03/25 04:03:27;;;;;;;9.57;2.72;;;8.30;99.90;;;;;;4973513;28;20368;-75
2023/03/25 04:05:59;;;;;;;11.48;2.47;;;8.40;99.90;;;;;;4972027;28;20393;-75
2023/03/25 04:08:50;;;;;;;;;;;8.30;99.90;;;;;;4961923;28;20033;-75
2023/03/25 04:11:23;;;;;;;10.98;3.42;;;8.30;99.90;;;;;;4977095;28;19917;-75
2023/03/25 04:13:52;;;;;;;11.57;2.50;;;8.30;99.90;;;;;;4980400;28;20048;-75
2023/03/25 04:16:19;;;;;;;10.25;2.60;;;8.30;99.90;;;;;;4974657;28;20030;-75
2023/03/25 04:18:46;;;;;;;10.18;2.80;;;8.30;99.90;;;;;;4971844;28;20401;-75
2023/03/25 04:21:14;;;;;;;10.90;1.92;;;8.40;99.90;;;;;;4967563;28;20374;-75
2023/03/25 04:23:40;;;;;;;11.63;2.38;;;8.40;99.90;;;;;;4974926;28;20528;-75
2023/03/25 04:26:06;;;;;;;10.70;2.50;;;8.30;99.90;;;;;;4974490;28;20034;-75
2023/03/25 04:28:35;;;;;;;11.85;2.80;;;8.30;99.90;;;;;;4990105;28;20038;-75
2023/03/25 04:31:06;;;;;;;19.95;3.95;;;8.40;99.90;;;;;;4987946;28;20038;-75
2023/03/25 04:33:34;;;;;;;11.75;2.83;;;8.30;99.90;;;;;;4982764;28;23098;-75
2023/03/25 04:36:02;;;;;;;9.00;1.77;;;8.40;99.90;;;;;;4977086;28;20053;-76
2023/03/25 04:38:29;;;;;;;12.60;2.63;;;8.40;99.90;;;;;;4989455;28;20033;-76
2023/03/25 04:40:56;;;;;;;10.93;2.38;;;8.40;99.90;;;;;;4966806;28;20037;-75
2023/03/25 04:43:23;;;;;;;11.43;2.72;;;8.40;99.90;;;;;;4972906;28;20424;-75
2023/03/25 04:45:52;;;;;;;14.18;2.83;;;8.40;99.90;;;;;;4971723;28;20488;-75
2023/03/25 04:48:24;;;;;;;12.63;2.83;;;8.40;99.90;;;;;;4990157;28;20042;-75
2023/03/25 04:50:51;;;;;;;13.55;2.75;;;8.40;99.90;;;;;;4972519;28;20054;-76
2023/03/25 04:53:17;;;;;;;13.13;3.00;;;8.40;99.90;;;;;;4985075;28;20045;-74
2023/03/25 04:55:46;;;;;;;17.33;2.35;;;8.40;99.90;;;;;;4960570;28;21019;-75
2023/03/25 04:58:14;;;;;;;12.85;2.50;;;8.40;99.90;;;;;;4974655;28;20034;-75
2023/03/25 05:00:42;;;;;;;11.82;2.22;;;8.40;99.90;;;;;;4983300;28;20551;-75
2023/03/25 05:03:10;;;;;;;11.80;2.10;;;8.40;99.90;;;;;;4956975;28;20508;-75
2023/03/25 05:05:37;;;;;;;11.68;2.88;;;8.40;99.90;;;;;;4973844;28;20409;-75
2023/03/25 05:08:03;;;;;;;13.02;2.47;;;8.40;99.90;;;;;;4959389;28;20042;-75
2023/03/25 05:10:30;;;;;;;15.43;2.80;;;8.40;99.90;;;;;;4988254;28;20049;-75
2023/03/25 05:13:01;;;;;;;11.20;1.80;;;8.40;99.90;;;;;;4980988;28;20048;-75
2023/03/25 05:15:29;;;;;;;8.98;1.85;;;8.40;99.90;;;;;;4978841;28;20041;-75
2023/03/25 05:17:56;;;;;;;11.77;2.13;;;8.40;99.90;;;;;;4955919;28;20595;-75
2023/03/25 05:20:23;;;;;;;10.20;1.42;;;8.50;99.90;;;;;;4967365;28;20045;-74
2023/03/25 05:22:52;;;;;;;10.45;1.80;;;8.50;99.90;;;;;;4969536;28;21556;-75
2023/03/25 05:25:21;;;;;;;8.98;1.80;;;8.50;99.90;;;;;;4971185;28;20626;-75
2023/03/25 05:27:48;;;;;;;9.00;2.20;;;8.50;99.90;;;;;;4973971;28;20017;-75
2023/03/25 05:30:14;;;;;;;11.27;2.03;;;8.50;99.90;;;;;;4967320;28;20591;-75
2023/03/25 05:32:44;;;;;;;11.38;2.40;;;8.50;99.90;;;;;;4976995;28;20048;-75
2023/03/25 05:35:10;;;;;;;9.25;2.72;;;8.50;99.90;;;;;;4980837;28;20705;-75
2023/03/25 05:37:36;;;;;;;8.77;2.05;;;8.50;99.90;;;;;;4977475;28;20408;-75
2023/03/25 05:40:04;;;;;;;11.20;2.20;;;8.50;99.90;;;;;;4969543;28;20033;-75
2023/03/25 05:42:31;;;;;;;10.68;2.38;;;8.50;99.90;;;;;;4982727;28;20042;-75
2023/03/25 05:44:57;;;;;;;15.43;2.83;;;8.50;99.90;;;;;;4971545;28;20045;-75
2023/03/25 05:47:24;;;;;;;9.10;2.88;;;8.50;99.90;;;;;;4972147;28;20504;-75
2023/03/25 05:49:52;;;;;;;9.43;2.08;;;8.50;99.90;;;;;;4966395;28;20061;-75
2023/03/25 05:52:23;;;;;;;9.82;2.38;;;8.50;99.90;;;;;;4975167;28;20041;-75
2023/03/25 05:54:50;;;;;;;6.65;1.90;;;8.60;99.90;;;;;;4979876;28;20242;-74
2023/03/25 05:57:17;;;;;;;8.25;2.65;;;8.50;99.90;;;;;;4976355;28;20041;-75
2023/03/25 05:59:44;;;;;;;6.45;1.45;;;8.60;99.90;;;;;;4967087;28;20054;-75
2023/03/25 06:02:13;;;;;;;9.68;1.70;;;8.60;99.90;;;;;;4952019;28;20042;-75
2023/03/25 06:04:41;;;;;;;10.38;2.50;;;8.60;99.90;;;;;;4971207;28;20044;-75
2023/03/25 06:07:18;;;;;;;7.22;1.70;;;8.60;99.90;;;;;;4970202;28;20042;-75
2023/03/25 06:09:46;;;;;;;11.82;2.50;;;8.60;99.90;;;;;;4966371;28;20408;-75
2023/03/25 06:12:14;;;;;;;7.88;2.25;;;8.60;99.90;;;;;;4955032;28;20041;-76
2023/03/25 06:14:44;;;;;;;9.18;2.10;;;8.60;99.90;;;;;;4977733;28;20041;-75
2023/03/25 06:17:11;;;;;;;9.77;2.58;;;8.60;99.90;;;;;;4980413;28;20041;-76
2023/03/25 06:19:38;;;;;;;15.98;3.03;;;8.60;99.90;;;;;;4966660;28;20038;-75
2023/03/25 06:22:08;;;;;;;10.50;2.85;;;8.60;99.90;;;;;;4966264;28;20985;-75
2023/03/25 06:24:39;;;;;;;10.07;2.45;;;8.60;99.90;;;;;;4968455;28;20053;-75
2023/03/25 06:27:16;;;;;;;11.45;2.90;;;8.60;99.90;;;;;;4973086;28;21031;-75
2023/03/25 06:29:43;;;;;;;10.25;3.03;;;8.60;99.90;;;;;;4968919;28;20527;-74
2023/03/25 06:32:14;;;;;;;7.93;2.78;;;8.60;99.90;;;;;;4968859;28;20081;-75
2023/03/25 06:34:43;;;;;;;9.95;2.67;;;8.60;99.90;;;;;;4980628;28;21788;-75
2023/03/25 06:37:10;;;;;;;11.10;3.85;;;8.60;99.90;;;;;;4978703;28;20029;-75
2023/03/25 06:39:36;;;;;;;17.65;4.22;;;8.60;99.90;;;;;;4974752;28;20046;-75
2023/03/25 06:42:09;;;;;;;9.68;2.70;;;8.60;99.90;;;;;;4950695;28;20412;-75
2023/03/25 06:44:50;;;;;;;12.55;4.03;;;8.60;99.90;;;;;;4970065;28;20393;-76
2023/03/25 06:47:35;;;;;;;16.10;3.72;;;8.60;99.90;;;;;;4973685;28;20041;-75
2023/03/25 06:50:01;;;;;;;18.08;4.13;;;8.60;99.90;;;;;;4966808;28;21006;-75
2023/03/25 06:52:27;;;;;;;13.95;3.00;;;8.60;99.90;;;;;;4968246;28;20041;-75
2023/03/25 06:54:54;;;;;;;11.75;3.28;;;8.60;99.90;;;;;;4960149;28;20069;-75
2023/03/25 06:57:20;;;;;;;12.50;3.78;;;8.60;99.90;;;;;;4980079;28;20030;-75
2023/03/25 06:59:48;;;;;;;10.02;3.30;;;8.70;99.90;;;;;;4974976;28;20049;-75
2023/03/25 07:02:14;;;;;;;13.88;4.15;;;8.70;99.90;;;;;;4967403;28;20053;-74
2023/03/25 07:04:41;;;;;;;20.15;3.95;;;8.70;99.90;;;;;;4972493;28;20679;-75
2023/03/25 07:07:08;;;;;;;11.68;3.13;;;8.70;99.90;;;;;;4971855;28;20049;-75
2023/03/25 07:09:35;;;;;;;17.20;3.05;;;8.70;99.90;;;;;;4968177;28;20068;-76
2023/03/25 07:12:01;;;;;;;16.15;3.17;;;8.80;99.90;;;;;;4950606;28;20034;-76
2023/03/25 07:14:28;;;;;;;14.75;2.78;;;8.80;99.90;;;;;;4975819;28;20060;-75
2023/03/25 07:16:55;;;;;;;11.63;2.70;;;8.80;99.90;;;;;;4994864;28;20045;-75
2023/03/25 07:19:21;;;;;;;14.85;2.80;;;8.90;99.90;;;;;;4958309;28;20568;-75
2023/03/25 07:21:47;;;;;;;14.93;2.78;;;9.00;99.90;;;;;;4968189;28;20034;-76
2023/03/25 07:24:14;;;;;;;11.32;2.55;;;9.10;99.90;;;;;;4971124;28;20037;-75
2023/03/25 07:26:40;;;;;;;15.73;2.50;;;9.10;99.90;;;;;;4970761;28;20049;-75
2023/03/25 07:29:08;;;;;;;11.90;2.20;;;9.20;99.90;;;;;;4966955;28;20512;-75
2023/03/25 07:31:35;;;;;;;14.48;2.75;;;9.20;99.90;;;;;;4948950;28;20042;-75
2023/03/25 07:34:01;;;;;;;17.60;2.35;;;9.20;99.90;;;;;;4971901;28;20049;-76
2023/03/25 07:36:28;;;;;;;12.85;3.60;;;9.10;99.90;;;;;;4983322;28;20046;-75
2023/03/25 07:38:54;;;;;;;14.13;2.45;;;9.00;99.90;;;;;;4981245;28;20060;-76
2023/03/25 07:41:21;;;;;;;15.10;3.90;;;8.90;99.90;;;;;;4984575;28;20041;-76
2023/03/25 07:44:05;;;;;;;15.73;3.15;;;8.80;99.90;;;;;;4972027;28;20050;-76
2023/03/25 07:46:32;;;;;;;19.35;3.05;;;8.80;99.90;;;;;;4956840;28;20034;-75
2023/03/25 07:48:58;;;;;;;13.05;3.13;;;8.80;99.90;;;;;;4954550;28;20042;-77
2023/03/25 07:51:25;;;;;;;17.17;3.40;;;8.70;99.90;;;;;;4965676;28;20053;-76
2023/03/25 07:53:51;;;;;;;21.15;3.78;;;8.70;99.90;;;;;;4971954;28;20044;-76
2023/03/25 07:56:18;;;;;;;11.68;2.53;;;8.70;99.90;;;;;;4981317;28;20360;-76
2023/03/25 07:58:45;;;;;;;18.15;3.97;;;8.70;99.90;;;;;;4963443;28;20038;-75
2023/03/25 08:01:11;;;;;;;13.27;3.03;;;8.70;99.90;;;;;;4968518;28;20504;-76
2023/03/25 08:03:38;;;;;;;14.88;3.65;;;8.70;99.90;;;;;;4972199;28;20409;-76
2023/03/25 08:06:06;;;;;;;16.98;3.08;;;8.80;99.90;;;;;;4973009;28;20885;-76
2023/03/25 08:08:33;;;;;;;19.67;4.30;;;8.80;99.90;;;;;;4970541;28;20431;-76
2023/03/25 08:11:00;;;;;;;21.85;3.53;;;8.90;99.90;;;;;;4963182;28;20034;-75
2023/03/25 08:13:27;;;;;;;16.27;3.75;;;8.90;99.90;;;;;;4972159;28;20033;-75
2023/03/25 08:15:53;;;;;;;16.23;3.28;;;9.00;99.90;;;;;;4978657;28;20069;-76
2023/03/25 08:18:19;;;;;;;21.10;3.83;;;9.10;99.90;;;;;;4965740;28;20545;-75
2023/03/25 08:20:49;;;;;;;15.18;2.90;;;9.10;99.90;;;;;;4972616;28;20084;-76
2023/03/25 08:23:17;;;;;;;12.60;2.92;;;9.20;99.90;;;;;;4957178;28;20041;-76
2023/03/25 08:25:44;;;;;;;19.25;3.88;;;9.10;99.90;;;;;;4973093;28;20045;-76
2023/03/25 08:28:10;;;;;;;17.92;3.45;;;9.20;99.90;;;;;;4972587;28;20041;-76
2023/03/25 08:30:37;;;;;;;22.75;4.57;;;9.20;99.90;;;;;;4964736;28;20048;-75
2023/03/25 08:33:08;;;;;;;14.77;3.05;;;9.30;99.90;;;;;;4955784;28;20413;-75
2023/03/25 08:35:37;;;;;;;18.80;3.72;;;9.50;99.90;;;;;;4977981;28;21006;-76
2023/03/25 08:38:05;;;;;;;13.65;2.72;;;9.60;99.90;;;;;;4981111;28;20432;-76
2023/03/25 08:40:34;;;;;;;20.15;4.78;;;9.60;99.90;;;;;;4957162;28;20072;-76
2023/03/25 08:43:03;;;;;;;13.73;3.47;;;9.70;99.90;;;;;;4974315;28;20041;-76
2023/03/25 08:45:31;;;;;;;18.63;2.72;;;9.70;99.90;;;;;;4952791;28;20044;-76
2023/03/25 08:47:58;;;;;;;17.33;2.80;;;9.70;99.90;;;;;;4971200;28;20049;-75
2023/03/25 08:50:24;;;;;;;18.70;2.80;;;9.80;99.90;;;;;;4966142;28;20394;-77
2023/03/25 08:52:52;;;;;;;26.10;4.45;;;9.80;99.90;;;;;;4969214;28;20049;-76
2023/03/25 08:55:18;;;;;;;15.95;2.58;;;9.90;99.90;;;;;;4974847;28;20637;-76
2023/03/25 08:57:45;;;;;;;14.07;2.53;;;10.00;99.90;;;;;;4980888;28;20060;-76
2023/03/25 09:00:12;;;;;;;15.85;2.72;;;10.20;99.90;;;;;;4977299;28;20041;-76
2023/03/25 09:02:38;;;;;;;16.10;2.80;;;10.30;99.90;;;;;;4988178;28;20042;-76
2023/03/25 09:05:05;;;;;;;17.85;3.13;;;10.40;99.90;;;;;;4971879;28;20038;-75
2023/03/25 09:07:32;;;;;;;17.92;3.22;;;10.40;99.90;;;;;;4970931;28;20058;-75
2023/03/25 09:09:59;;;;;;;15.70;2.95;;;10.50;99.90;;;;;;4966770;28;20037;-75
2023/03/25 09:12:25;;;;;;;22.33;3.67;;;10.50;99.90;;;;;;4981268;28;20049;-76
2023/03/25 09:14:51;;;;;;;16.70;2.40;;;10.40;99.90;;;;;;4971086;28;20037;-76
2023/03/25 09:17:18;;;;;;;20.20;3.05;;;10.30;99.90;;;;;;4963976;28;20033;-76
2023/03/25 09:19:45;;;;;;;13.70;2.10;;;10.20;99.90;;;;;;4977510;28;20783;-75
2023/03/25 09:22:11;;;;;;;18.13;3.42;;;10.10;99.90;;;;;;4990417;28;20506;-75
2023/03/25 09:24:38;;;;;;;15.18;2.40;;;9.90;99.90;;;;;;4973190;28;20041;-76
2023/03/25 09:27:04;;;;;;;15.45;2.10;;;9.80;99.90;;;;;;4972259;28;20086;-76
2023/03/25 09:29:30;;;;;;;20.73;3.03;;;9.90;99.90;;;;;;4981823;28;20455;-76
2023/03/25 09:31:58;;;;;;;24.02;3.50;;;9.90;99.90;;;;;;4967596;28;20052;-76
2023/03/25 09:34:26;;;;;;;19.98;3.08;;;9.90;99.90;;;;;;4984911;28;20037;-76
2023/03/25 09:36:54;;;;;;;13.00;2.97;;;9.90;99.90;;;;;;4989122;28;20507;-76
2023/03/25 09:39:21;;;;;;;17.33;3.60;;;9.80;99.90;;;;;;4977390;28;20421;-76
2023/03/25 09:42:18;;;;;;;22.10;3.45;;;9.80;99.90;;;;;;4990804;28;20045;-77
2023/03/25 09:45:02;;;;;;;13.15;2.70;;;9.70;99.90;;;;;;4956273;28;20049;-76
2023/03/25 09:47:32;;;;;;;23.38;3.80;;;9.60;99.90;;;;;;4955727;28;21454;-76
2023/03/25 09:50:03;;;;;;;22.30;3.55;;;9.50;99.90;;;;;;4967001;28;20038;-77
2023/03/25 09:52:48;;;;;;;18.95;3.58;;;9.50;99.90;;;;;;4966893;28;20436;-77
2023/03/25 09:55:24;;;;;;;23.45;4.45;;;9.60;99.90;;;;;;4969843;28;20120;-76
2023/03/25 09:57:56;;;;;;;21.00;4.25;;;9.70;99.90;;;;;;4955868;28;20474;-77
2023/03/25 10:00:24;;;;;;;23.25;2.58;;;9.80;99.90;;;;;;4974421;28;20033;-77
2023/03/25 10:03:18;;;;;;;18.73;3.70;;;9.70;99.90;;;;;;4979367;28;20049;-77
2023/03/25 10:05:57;;;;;;;21.20;2.95;;;9.80;99.90;;;;;;4971816;28;20089;-76
2023/03/25 10:08:23;;;;;;;24.67;4.28;;;9.90;99.90;;;;;;4986199;28;20056;-76
2023/03/25 10:11:15;;;;;;;19.45;3.28;;;10.00;99.90;;;;;;4976060;28;20045;-77
2023/03/25 10:13:55;;;;;;;26.75;4.70;;;10.40;99.90;;;;;;4953036;28;20489;-76
2023/03/25 10:16:47;;;;;;;25.60;4.93;;;10.70;99.90;;;;;;4970513;28;20481;-77
2023/03/25 10:19:34;;;;;;;23.25;3.72;;;10.90;99.90;;;;;;4973395;28;20037;-76
2023/03/25 10:22:10;;;;;;;25.45;3.83;;;11.00;99.90;;;;;;4990934;28;20034;-76
2023/03/25 10:24:59;;;;;;;22.02;3.20;;;11.20;99.90;;;;;;4976944;28;20034;-76
2023/03/25 10:27:40;;;;;;;27.27;5.03;;;11.30;99.90;;;;;;4968909;28;20532;-76
2023/03/25 10:30:12;;;;;;;25.77;3.50;;;11.30;99.90;;;;;;4963557;28;20489;-77
2023/03/25 10:32:53;;;;;;;17.85;3.05;;;11.40;99.90;;;;;;4980908;28;20034;-76
2023/03/25 10:35:28;;;;;;;18.65;3.47;;;11.40;99.90;;;;;;4967958;28;20611;-76
2023/03/25 10:38:06;;;;;;;24.10;4.32;;;11.70;99.90;;;;;;4970848;28;20065;-76
2023/03/25 10:40:43;;;;;;;27.63;4.35;;;12.00;99.90;;;;;;4970583;28;20038;-76
2023/03/25 10:43:26;;;;;;;22.20;2.88;;;12.10;99.90;;;;;;4976203;28;20041;-76
2023/03/25 10:45:58;;;;;;;18.42;2.42;;;11.90;99.90;;;;;;4973142;28;20053;-77
2023/03/25 10:48:27;;;;;;;23.08;3.72;;;11.70;99.90;;;;;;4966690;28;20042;-77
2023/03/25 10:51:12;;;;;;;23.55;3.22;;;11.30;99.90;;;;;;4961347;28;20050;-77
2023/03/25 10:53:40;;;;;;;31.77;4.57;;;11.10;99.90;;;;;;4984008;28;20054;-77
2023/03/25 10:56:12;;;;;;;25.40;3.53;;;11.00;99.90;;;;;;4968436;28;20054;-76
2023/03/25 10:58:41;;;;;;;24.30;3.78;;;10.90;99.90;;;;;;4970497;28;20403;-77
2023/03/25 11:01:13;;;;;;;32.63;4.72;;;10.80;99.90;;;;;;4970260;28;20041;-79
2023/03/25 11:03:41;;;;;;;23.13;2.37;;;10.70;99.90;;;;;;4976900;28;20027;-78
2023/03/25 11:06:23;;;;;;;20.52;2.47;;;10.40;99.90;;;;;;4969728;28;20489;-78
2023/03/25 11:09:18;;;;;;;20.45;2.35;;;10.30;99.90;;;;;;4968036;28;20486;-78
2023/03/25 11:11:45;;;;;;;17.17;2.30;;;10.20;99.90;;;;;;4969188;28;20042;-77
2023/03/25 11:14:12;;;;;;;25.17;3.08;;;10.30;99.90;;;;;;4972053;28;20041;-77
2023/03/25 11:16:46;;;;;;;18.88;2.83;;;10.30;99.90;;;;;;4972292;28;20049;-77
2023/03/25 11:19:23;;;;;;;29.55;3.92;;;10.30;99.90;;;;;;4971836;28;20038;-77
2023/03/25 11:21:54;;;;;;;23.85;3.63;;;10.40;99.90;;;;;;4993249;28;20281;-77
2023/03/25 11:24:26;;;;;;;25.58;3.22;;;10.50;99.90;;;;;;4980460;28;20042;-77
2023/03/25 11:26:52;;;;;;;25.30;4.03;;;10.80;99.90;;;;;;4970733;28;20332;-77
2023/03/25 11:29:23;;;;;;;19.40;2.83;;;10.90;99.90;;;;;;4984210;28;20048;-76
2023/03/25 11:32:37;;;;;;;24.63;3.08;;;11.10;99.90;;;;;;4970268;28;20033;-77
2023/03/25 11:35:21;;;;;;;24.83;2.67;;;11.00;99.90;;;;;;4974088;28;20521;-77
2023/03/25 11:37:57;;;;;;;19.65;2.88;;;10.70;99.90;;;;;;4973003;28;20397;-78
2023/03/25 11:40:25;;;;;;;26.67;3.17;;;10.50;99.90;;;;;;4978762;28;20037;-78
2023/03/25 11:42:56;;;;;;;22.02;3.10;;;10.30;99.90;;;;;;4978791;28;20065;-79
2023/03/25 11:45:37;;;;;;;20.93;1.90;;;10.20;99.90;;;;;;4978245;28;20486;-77
2023/03/25 11:48:19;;;;;;;21.35;2.30;;;10.20;99.90;;;;;;4971209;28;20042;-78
2023/03/25 11:50:51;;;;;;;24.30;2.85;;;10.30;99.90;;;;;;4978745;28;20061;-77
2023/03/25 11:53:19;;;;;;;20.70;2.53;;;10.40;99.90;;;;;;4972687;28;20042;-78
2023/03/25 11:55:49;;;;;;;20.67;2.33;;;10.40;99.90;;;;;;4972378;28;20053;-77
2023/03/25 11:58:20;;;;;;;23.00;2.63;;;10.60;99.90;;;;;;4972900;28;20045;-76
2023/03/25 12:00:59;;;;;;;19.40;2.15;;;10.80;99.90;;;;;;4947917;28;20871;-76
2023/03/25 12:03:27;;;;;;;22.02;2.67;;;11.00;99.90;;;;;;4963961;28;20508;-76
2023/03/25 12:06:05;;;;;;;12.30;1.33;;;11.10;99.90;;;;;;4978905;28;20042;-78
2023/03/25 12:09:06;;;;;;;14.20;1.67;;;11.10;99.90;;;;;;4971740;28;20029;-78
2023/03/25 12:11:46;;;;;;;17.70;2.35;;;11.30;99.90;;;;;;4960945;28;20652;-78
2023/03/25 12:14:26;;;;;;;18.92;2.50;;;11.50;99.90;;;;;;4970282;28;20041;-78
2023/03/25 12:16:59;;;;;;;16.98;2.40;;;12.00;99.90;;;;;;4970746;28;20050;-78
2023/03/25 12:20:16;;;;;;;20.02;2.80;;;12.00;99.90;;;;;;4964287;28;20479;-78
2023/03/25 12:23:02;;;;;;;15.07;2.05;;;11.80;99.90;;;;;;4976475;28;20061;-78
2023/03/25 12:25:57;;;;;;;17.83;1.83;;;11.60;99.90;;;;;;4978511;28;20068;-79
2023/03/25 12:28:26;;;;;;;20.10;2.80;;;11.70;99.90;;;;;;4973839;28;20527;-78
2023/03/25 12:31:10;;;;;;;16.00;1.90;;;12.30;99.90;;;;;;4976387;28;20948;-78
2023/03/25 12:33:59;;;;;;;13.15;1.38;;;12.90;99.90;;;;;;4953277;28;20044;-78
2023/03/25 12:36:28;;;;;;;16.40;1.98;;;12.90;99.90;;;;;;4964623;28;20045;-78
2023/03/25 12:39:04;;;;;;;16.35;1.65;;;12.60;99.90;;;;;;4985314;28;20053;-77
2023/03/25 12:42:03;;;;;;;16.85;1.70;;;12.30;99.90;;;;;;4971568;28;20061;-78
2023/03/25 12:44:42;;;;;;;16.88;1.48;;;11.80;99.90;;;;;;4966989;28;20480;-79
2023/03/25 12:47:28;;;;;;;11.70;1.63;;;11.50;99.90;;;;;;4974472;28;20049;-80
2023/03/25 12:50:15;;;;;;;13.00;1.58;;;11.00;99.90;;;;;;4982539;28;20250;-79
2023/03/25 12:52:51;;;;;;;7.55;0.90;;;10.60;99.90;;;;;;4984374;28;20041;-78
2023/03/25 12:55:23;;;;;;;16.92;1.65;;;10.30;99.90;;;;;;4971381;28;20112;-81
2023/03/25 12:58:07;;;;;;;12.18;1.55;;;10.10;99.90;;;;;;4970524;28;21356;-79
2023/03/25 13:00:33;;;;;;;9.85;0.90;;;9.90;99.90;;;;;;4963540;28;20034;-78
2023/03/25 13:03:22;;;;;;;11.93;0.93;;;9.70;99.90;;;;;;4978540;28;20030;-79
2023/03/25 13:06:00;;;;;;;12.88;1.52;;;9.60;99.90;;;;;;4963013;28;20041;-78
2023/03/25 13:08:35;;;;;;;12.82;1.50;;;9.50;99.90;;;;;;4972482;28;20030;-78
2023/03/25 13:11:46;;;;;;;9.98;1.50;;;9.60;99.90;;;;;;4964366;28;20045;-78
2023/03/25 13:14:24;;;;;;;11.57;1.55;;;9.60;99.90;;;;;;4964653;28;20046;-78
2023/03/25 13:16:55;;;;;;;17.67;1.75;;;10.00;99.90;;;;;;4956748;28;20045;-78